createdAt,value
2018-11-28T00:00:04.460Z,95.39
2018-11-28T00:00:36.131Z,95.74
2018-11-28T00:01:12.202Z,95.49
2018-11-28T00:01:44.485Z,95.14
2018-11-28T00:02:15.738Z,95.65
2018-11-28T00:02:48.720Z,95.29
2018-11-28T00:03:20.632Z,95.33
2018-11-28T00:09:02.746Z,95.38
2018-11-28T00:09:33.902Z,95.79
2018-11-28T00:10:05.033Z,95.88
2018-11-28T00:10:36.145Z,95.93
2018-11-28T00:11:08.629Z,95.97
2018-11-28T00:11:42.261Z,95.79
2018-11-28T00:12:13.479Z,95.31
2018-11-28T00:12:45.061Z,95.29
2018-11-28T00:13:16.366Z,95.84
2018-11-28T00:13:47.635Z,95.22
2018-11-28T00:14:18.894Z,95.48
2018-11-28T00:14:50.122Z,95.30
2018-11-28T00:15:21.455Z,95.47
2018-11-28T00:15:53.051Z,95.67
2018-11-28T00:16:24.246Z,95.07
2018-11-28T00:16:55.582Z,95.41
2018-11-28T00:17:26.782Z,94.96
2018-11-28T00:17:57.967Z,95.17
2018-11-28T00:18:31.523Z,95.04
2018-11-28T00:19:02.723Z,95.13
2018-11-28T00:19:34.028Z,95.46
2018-11-28T00:20:05.231Z,95.05
2018-11-28T00:20:36.396Z,94.68
2018-11-28T00:21:08.173Z,94.76
2018-11-28T00:21:39.367Z,95.01
2018-11-28T00:22:10.571Z,94.29
2018-11-28T00:22:41.800Z,94.38
2018-11-28T00:23:13.005Z,94.55
2018-11-28T00:23:44.191Z,94.33
2018-11-28T00:24:15.381Z,94.25
2018-11-28T00:24:48.421Z,94.37
2018-11-28T00:25:19.621Z,94.48
2018-11-28T00:25:50.745Z,93.93
2018-11-28T00:26:21.862Z,94.30
2018-11-28T00:26:53.025Z,93.87
2018-11-28T00:27:24.148Z,94.39
2018-11-28T00:27:55.410Z,93.91
2018-11-28T00:28:26.747Z,93.58
2018-11-28T00:28:57.932Z,94.19
2018-11-28T00:29:29.162Z,94.20
2018-11-28T00:30:00.381Z,94.11
2018-11-28T00:30:31.602Z,94.10
2018-11-28T00:31:02.850Z,93.84
2018-11-28T00:31:34.011Z,94.24
2018-11-28T00:32:05.162Z,94.14
2018-11-28T00:32:36.454Z,94.54
2018-11-28T00:33:07.570Z,94.27
2018-11-28T00:33:38.734Z,94.06
2018-11-28T00:34:09.861Z,94.61
2018-11-28T00:34:41.768Z,94.77
2018-11-28T00:35:12.907Z,94.18
2018-11-28T00:35:44.028Z,94.27
2018-11-28T00:36:15.144Z,94.32
2018-11-28T00:36:46.254Z,94.49
2018-11-28T00:37:17.374Z,94.93
2018-11-28T00:37:48.493Z,94.53
2018-11-28T00:38:19.604Z,93.91
2018-11-28T00:38:50.748Z,93.86
2018-11-28T00:39:21.893Z,94.02
2018-11-28T00:39:53.003Z,94.40
2018-11-28T00:40:24.126Z,94.17
2018-11-28T00:40:55.265Z,94.32
2018-11-28T00:41:26.431Z,93.80
2018-11-28T00:41:57.565Z,94.09
2018-11-28T00:42:28.690Z,94.33
2018-11-28T00:42:59.823Z,94.41
2018-11-28T00:43:30.949Z,94.71
2018-11-28T00:44:02.098Z,94.29
2018-11-28T00:44:33.219Z,94.27
2018-11-28T00:45:04.355Z,93.92
2018-11-28T00:45:35.518Z,93.59
2018-11-28T00:46:06.643Z,93.88
2018-11-28T00:46:37.770Z,93.79
2018-11-28T00:47:08.889Z,94.09
2018-11-28T00:47:39.988Z,93.79
2018-11-28T00:48:11.149Z,94.22
2018-11-28T00:48:42.252Z,94.72
2018-11-28T00:49:13.357Z,94.70
2018-11-28T00:49:44.456Z,94.42
2018-11-28T00:50:15.594Z,94.20
2018-11-28T00:50:46.729Z,93.95
2018-11-28T00:51:17.844Z,94.53
2018-11-28T00:51:48.953Z,94.50
2018-11-28T00:52:20.063Z,94.14
2018-11-28T00:52:51.209Z,94.28
2018-11-28T00:53:22.375Z,94.92
2018-11-28T00:53:53.480Z,94.58
2018-11-28T00:54:24.584Z,94.17
2018-11-28T00:54:55.691Z,94.37
2018-11-28T00:55:26.794Z,94.28
2018-11-28T00:55:57.902Z,94.28
2018-11-28T00:56:29.016Z,93.91
2018-11-28T00:57:00.152Z,94.29
2018-11-28T00:57:31.263Z,93.94
2018-11-28T00:58:02.421Z,93.62
2018-11-28T00:58:33.539Z,93.33
2018-11-28T00:59:04.640Z,93.47
2018-11-28T00:59:35.755Z,93.27
2018-11-28T01:00:06.901Z,92.68
2018-11-28T01:00:38.894Z,92.63
2018-11-28T01:01:10.297Z,93.40
2018-11-28T01:01:41.456Z,93.01
2018-11-28T01:02:12.586Z,93.03
2018-11-28T01:02:45.505Z,92.93
2018-11-28T01:03:17.640Z,93.17
2018-11-28T01:03:48.978Z,93.53
2018-11-28T01:04:20.159Z,93.06
2018-11-28T01:04:51.284Z,93.24
2018-11-28T01:05:22.414Z,93.04
2018-11-28T01:05:54.239Z,93.39
2018-11-28T01:06:25.428Z,93.38
2018-11-28T01:06:56.790Z,93.39
2018-11-28T01:07:28.837Z,93.87
2018-11-28T01:08:00.015Z,93.67
2018-11-28T01:08:31.222Z,92.84
2018-11-28T01:09:02.375Z,92.69
2018-11-28T01:09:33.574Z,93.11
2018-11-28T01:10:04.821Z,93.27
2018-11-28T01:10:36.021Z,93.21
2018-11-28T01:11:07.185Z,93.03
2018-11-28T01:11:38.376Z,92.91
2018-11-28T01:12:09.555Z,93.11
2018-11-28T01:12:40.723Z,93.08
2018-11-28T01:13:11.856Z,92.85
2018-11-28T01:13:43.601Z,92.59
2018-11-28T01:14:15.608Z,92.72
2018-11-28T01:14:46.793Z,93.12
2018-11-28T01:15:18.013Z,93.00
2018-11-28T01:15:49.155Z,93.42
2018-11-28T01:16:20.266Z,93.22
2018-11-28T01:16:51.397Z,93.66
2018-11-28T01:17:22.852Z,93.73
2018-11-28T01:17:53.991Z,93.65
2018-11-28T01:18:25.157Z,93.88
2018-11-28T01:18:56.851Z,93.49
2018-11-28T01:19:28.009Z,93.21
2018-11-28T01:19:59.117Z,93.36
2018-11-28T01:20:30.236Z,93.44
2018-11-28T01:21:01.945Z,93.25
2018-11-28T01:21:33.155Z,92.63
2018-11-28T01:22:04.306Z,93.36
2018-11-28T01:22:35.502Z,93.27
2018-11-28T01:23:06.661Z,93.39
2018-11-28T01:23:37.892Z,93.86
2018-11-28T01:24:09.613Z,93.90
2018-11-28T01:24:40.801Z,93.94
2018-11-28T01:25:12.038Z,93.71
2018-11-28T01:25:43.241Z,93.55
2018-11-28T01:26:14.475Z,93.79
2018-11-28T01:26:45.633Z,93.87
2018-11-28T01:27:16.733Z,93.83
2018-11-28T01:27:47.849Z,93.50
2018-11-28T01:28:18.980Z,94.19
2018-11-28T01:28:50.122Z,93.77
2018-11-28T01:29:21.241Z,93.90
2018-11-28T01:29:52.357Z,94.04
2018-11-28T01:30:23.487Z,93.54
2018-11-28T01:30:55.975Z,93.89
2018-11-28T01:31:27.357Z,93.40
2018-11-28T01:31:58.487Z,93.39
2018-11-28T01:32:29.644Z,93.52
2018-11-28T01:33:00.814Z,93.83
2018-11-28T01:33:31.991Z,93.60
2018-11-28T01:34:03.193Z,93.67
2018-11-28T01:34:34.409Z,93.60
2018-11-28T01:35:05.582Z,93.28
2018-11-28T01:35:36.708Z,93.25
2018-11-28T01:36:07.905Z,93.12
2018-11-28T01:36:39.754Z,93.39
2018-11-28T01:37:10.945Z,93.21
2018-11-28T01:37:42.175Z,93.11
2018-11-28T01:38:13.460Z,92.94
2018-11-28T01:38:44.665Z,92.55
2018-11-28T01:39:15.906Z,92.45
2018-11-28T01:39:47.054Z,92.63
2018-11-28T01:40:18.224Z,93.06
2018-11-28T01:40:50.054Z,92.63
2018-11-28T01:41:22.299Z,92.82
2018-11-28T01:41:53.512Z,92.78
2018-11-28T01:42:24.652Z,92.72
2018-11-28T01:42:55.802Z,93.05
2018-11-28T01:43:27.095Z,92.60
2018-11-28T01:44:00.236Z,92.21
2018-11-28T01:44:31.557Z,91.77
2018-11-28T01:45:02.865Z,91.86
2018-11-28T01:45:34.006Z,92.11
2018-11-28T01:46:05.583Z,91.57
2018-11-28T01:46:36.781Z,91.58
2018-11-28T01:47:07.888Z,91.93
2018-11-28T01:47:38.994Z,92.07
2018-11-28T01:48:10.102Z,92.06
2018-11-28T01:48:41.247Z,92.20
2018-11-28T01:49:13.457Z,92.07
2018-11-28T01:49:44.716Z,92.07
2018-11-28T01:50:15.892Z,91.77
2018-11-28T01:50:47.042Z,92.03
2018-11-28T01:51:18.203Z,91.78
2018-11-28T01:51:49.347Z,91.73
2018-11-28T01:52:57.998Z,91.67
2018-11-28T01:53:29.178Z,91.66
2018-11-28T01:54:00.285Z,92.13
2018-11-28T01:54:31.420Z,92.31
2018-11-28T01:55:02.540Z,92.39
2018-11-28T01:55:33.655Z,92.51
2018-11-28T01:56:04.784Z,91.77
2018-11-28T01:56:37.042Z,91.89
2018-11-28T01:57:08.155Z,91.92
2018-11-28T01:57:39.311Z,91.59
2018-11-28T01:58:10.461Z,91.41
2018-11-28T01:58:42.148Z,91.66
2018-11-28T01:59:13.350Z,91.30
2018-11-28T01:59:44.961Z,91.29
2018-11-28T02:00:16.203Z,91.72
2018-11-28T02:00:47.405Z,91.49
2018-11-28T02:01:18.576Z,91.90
2018-11-28T02:01:49.702Z,91.39
2018-11-28T02:02:20.836Z,91.00
2018-11-28T02:02:51.961Z,91.31
2018-11-28T02:03:23.060Z,91.07
2018-11-28T02:03:54.177Z,91.32
2018-11-28T02:04:25.272Z,90.99
2018-11-28T02:04:56.376Z,91.13
2018-11-28T02:05:27.475Z,90.97
2018-11-28T02:05:58.579Z,91.28
2018-11-28T02:06:29.712Z,91.37
2018-11-28T02:07:00.805Z,91.22
2018-11-28T02:07:31.942Z,91.46
2018-11-28T02:08:03.081Z,91.17
2018-11-28T02:08:34.182Z,91.39
2018-11-28T02:09:05.291Z,91.49
2018-11-28T02:09:36.391Z,91.33
2018-11-28T02:10:07.511Z,91.11
2018-11-28T02:10:38.628Z,91.40
2018-11-28T02:11:09.732Z,91.44
2018-11-28T02:11:40.872Z,91.44
2018-11-28T02:12:11.977Z,91.51
2018-11-28T02:12:43.093Z,91.69
2018-11-28T02:13:14.187Z,90.76
2018-11-28T02:13:45.289Z,90.71
2018-11-28T02:14:16.391Z,90.46
2018-11-28T02:14:47.500Z,90.82
2018-11-28T02:15:18.591Z,90.96
2018-11-28T02:15:51.846Z,90.91
2018-11-28T02:16:23.013Z,90.61
2018-11-28T02:16:54.164Z,90.71
2018-11-28T02:17:25.345Z,92.10
2018-11-28T02:17:56.486Z,91.35
2018-11-28T02:18:27.617Z,91.24
2018-11-28T02:18:58.761Z,90.86
2018-11-28T02:19:29.976Z,91.12
2018-11-28T02:20:01.353Z,90.65
2018-11-28T02:20:32.983Z,91.70
2018-11-28T02:21:04.894Z,91.75
2018-11-28T02:21:36.083Z,91.62
2018-11-28T02:22:10.457Z,90.83
2018-11-28T02:22:41.715Z,90.34
2018-11-28T02:23:13.543Z,89.40
2018-11-28T02:23:44.917Z,89.46
2018-11-28T02:24:16.955Z,89.65
2018-11-28T02:24:48.267Z,90.19
2018-11-28T02:25:22.546Z,89.64
2018-11-28T02:25:55.413Z,89.52
2018-11-28T02:26:26.735Z,89.58
2018-11-28T02:26:58.141Z,89.15
2018-11-28T02:27:29.481Z,89.63
2018-11-28T02:28:05.158Z,89.39
2018-11-28T02:28:40.240Z,89.63
2018-11-28T02:29:13.333Z,89.16
2018-11-28T02:29:44.847Z,89.74
2018-11-28T02:30:16.586Z,90.26
2018-11-28T02:30:48.490Z,89.89
2018-11-28T02:31:20.442Z,89.95
2018-11-28T02:31:51.757Z,89.48
2018-11-28T02:32:23.088Z,88.89
2018-11-28T02:32:56.180Z,88.99
2018-11-28T02:33:28.184Z,89.33
2018-11-28T02:34:00.238Z,88.04
2018-11-28T02:34:33.662Z,87.99
2018-11-28T02:35:04.919Z,88.51
2018-11-28T02:35:38.316Z,88.21
2018-11-28T02:36:10.478Z,88.39
2018-11-28T02:36:41.822Z,88.73
2018-11-28T02:37:13.129Z,88.75
2018-11-28T02:37:45.504Z,88.79
2018-11-28T02:38:16.871Z,88.99
2018-11-28T02:38:49.136Z,88.96
2018-11-28T02:39:20.421Z,88.26
2018-11-28T02:39:53.295Z,87.84
2018-11-28T02:40:24.887Z,87.91
2018-11-28T02:40:56.186Z,87.63
2018-11-28T02:41:29.423Z,87.24
2018-11-28T02:42:00.692Z,87.56
2018-11-28T02:42:31.946Z,87.47
2018-11-28T02:43:03.834Z,87.82
2018-11-28T02:43:35.138Z,88.41
2018-11-28T02:44:06.996Z,89.06
2018-11-28T02:44:38.270Z,89.21
2018-11-28T02:45:09.478Z,89.24
2018-11-28T02:45:42.725Z,90.10
2018-11-28T02:46:14.137Z,89.56
2018-11-28T02:46:48.549Z,89.31
2018-11-28T02:47:19.762Z,89.76
2018-11-28T02:48:27.269Z,90.16
2018-11-28T02:48:59.499Z,90.07
2018-11-28T02:49:31.262Z,90.00
2018-11-28T02:50:02.737Z,90.51
2018-11-28T02:50:33.880Z,90.32
2018-11-28T02:51:05.048Z,90.50
2018-11-28T02:51:36.198Z,90.40
2018-11-28T02:52:08.166Z,90.57
2018-11-28T02:52:39.430Z,90.35
2018-11-28T02:53:10.802Z,90.69
2018-11-28T02:53:42.869Z,90.74
2018-11-28T02:54:15.091Z,91.06
2018-11-28T02:54:46.383Z,91.26
2018-11-28T02:55:19.394Z,91.31
2018-11-28T02:55:51.821Z,91.24
2018-11-28T02:57:05.260Z,91.62
2018-11-28T02:59:34.471Z,92.42
2018-11-28T03:15:20.179Z,94.31
2018-11-28T03:15:53.280Z,94.38
2018-11-28T03:16:26.290Z,94.48
2018-11-28T03:16:58.090Z,93.89
2018-11-28T03:17:30.267Z,93.85
2018-11-28T03:18:04.542Z,93.70
2018-11-28T03:18:35.965Z,93.91
2018-11-28T03:19:13.633Z,93.78
2018-11-28T03:19:45.757Z,94.05
2018-11-28T03:20:17.840Z,93.70
2018-11-28T03:20:49.175Z,93.87
2018-11-28T03:21:20.694Z,94.03
2018-11-28T03:21:52.188Z,93.85
2018-11-28T03:22:23.407Z,93.82
2018-11-28T03:22:55.851Z,93.33
2018-11-28T03:23:27.103Z,92.81
2018-11-28T03:23:59.525Z,92.87
2018-11-28T03:24:32.584Z,92.51
2018-11-28T03:25:05.669Z,92.34
2018-11-28T03:25:44.021Z,92.97
2018-11-28T03:26:15.431Z,92.43
2018-11-28T03:26:51.293Z,92.72
2018-11-28T03:28:39.552Z,92.86
2018-11-28T03:29:10.808Z,92.78
2018-11-28T03:29:43.270Z,92.51
2018-11-28T03:30:15.024Z,92.44
2018-11-28T03:30:47.221Z,92.35
2018-11-28T03:31:19.206Z,91.93
2018-11-28T03:31:53.767Z,91.88
2018-11-28T03:32:28.603Z,92.08
2018-11-28T03:33:00.164Z,91.94
2018-11-28T03:33:36.205Z,91.73
2018-11-28T03:34:13.427Z,92.67
2018-11-28T03:34:48.853Z,92.12
2018-11-28T03:35:24.145Z,91.81
2018-11-28T03:35:55.722Z,92.16
2018-11-28T03:36:28.151Z,92.10
2018-11-28T03:37:00.223Z,92.21
2018-11-28T03:37:33.100Z,91.87
2018-11-28T03:38:05.466Z,92.10
2018-11-28T03:38:36.787Z,92.46
2018-11-28T03:39:09.635Z,92.76
2018-11-28T03:39:41.594Z,91.58
2018-11-28T03:40:15.237Z,91.56
2018-11-28T03:40:47.382Z,91.55
2018-11-28T03:41:20.399Z,91.93
2018-11-28T03:41:52.171Z,91.84
2018-11-28T03:42:24.610Z,91.11
2018-11-28T03:42:56.544Z,91.44
2018-11-28T03:43:27.824Z,91.59
2018-11-28T03:43:59.749Z,92.22
2018-11-28T03:44:31.600Z,91.33
2018-11-28T03:45:03.679Z,90.58
2018-11-28T03:45:36.644Z,90.31
2018-11-28T03:46:08.083Z,90.45
2018-11-28T03:46:40.393Z,90.60
2018-11-28T03:50:04.594Z,91.07
2018-11-28T03:54:20.612Z,92.04
2018-11-28T03:54:51.887Z,92.14
2018-11-28T03:55:23.161Z,91.86
2018-11-28T03:55:58.302Z,91.34
2018-11-28T03:56:30.569Z,91.97
2018-11-28T03:57:03.287Z,91.47
2018-11-28T03:57:34.544Z,91.21
2018-11-28T03:58:06.579Z,91.30
2018-11-28T03:58:39.626Z,91.36
2018-11-28T03:59:11.626Z,91.23
2018-11-28T03:59:42.833Z,91.12
2018-11-28T04:00:14.060Z,91.16
2018-11-28T04:00:45.310Z,91.23
2018-11-28T04:01:16.514Z,91.62
2018-11-28T04:01:48.639Z,91.99
2018-11-28T04:02:20.417Z,91.68
2018-11-28T04:02:51.696Z,91.44
2018-11-28T04:03:24.345Z,91.99
2018-11-28T04:03:55.673Z,91.71
2018-11-28T04:04:28.634Z,91.89
2018-11-28T04:05:00.609Z,92.01
2018-11-28T04:05:31.807Z,91.87
2018-11-28T04:06:03.400Z,91.40
2018-11-28T04:06:34.685Z,90.70
2018-11-28T04:07:06.914Z,91.70
2018-11-28T04:07:39.646Z,92.02
2018-11-28T04:08:11.566Z,91.75
2018-11-28T04:08:45.968Z,91.59
2018-11-28T04:09:18.813Z,91.26
2018-11-28T04:10:28.366Z,90.98
2018-11-28T04:11:00.245Z,91.32
2018-11-28T04:11:31.805Z,91.52
2018-11-28T04:12:05.261Z,91.78
2018-11-28T04:12:36.656Z,91.24
2018-11-28T04:13:08.089Z,91.36
2018-11-28T04:13:40.233Z,90.89
2018-11-28T04:14:11.647Z,89.78
2018-11-28T04:14:43.785Z,89.78
2018-11-28T04:15:15.163Z,89.71
2018-11-28T04:15:46.386Z,89.83
2018-11-28T04:16:18.267Z,89.76
2018-11-28T04:16:49.611Z,89.32
2018-11-28T04:17:21.834Z,89.31
2018-11-28T04:17:53.759Z,89.03
2018-11-28T04:18:25.410Z,89.20
2018-11-28T04:18:56.671Z,89.24
2018-11-28T04:19:27.819Z,89.06
2018-11-28T04:19:58.954Z,89.00
2018-11-28T04:20:30.091Z,88.54
2018-11-28T04:26:01.044Z,90.42
2018-11-28T04:26:32.269Z,90.81
2018-11-28T04:27:04.429Z,91.14
2018-11-28T04:27:35.783Z,91.36
2018-11-28T04:32:54.772Z,91.36
2018-11-28T04:33:25.938Z,91.59
2018-11-28T04:33:57.697Z,91.27
2018-11-28T04:34:28.871Z,90.50
2018-11-28T04:35:00.039Z,90.43
2018-11-28T04:35:31.941Z,90.08
2018-11-28T04:36:03.072Z,90.45
2018-11-28T04:36:34.320Z,90.17
2018-11-28T04:37:06.535Z,90.16
2018-11-28T04:37:38.791Z,89.40
2018-11-28T04:38:10.021Z,89.10
2018-11-28T04:38:41.587Z,88.94
2018-11-28T04:39:14.095Z,89.19
2018-11-28T04:39:46.720Z,89.73
2018-11-28T04:40:21.339Z,89.65
2018-11-28T04:40:52.646Z,89.23
2018-11-28T04:41:24.543Z,89.34
2018-11-28T04:41:57.228Z,89.24
2018-11-28T04:42:32.288Z,90.18
2018-11-28T04:43:05.258Z,90.52
2018-11-28T04:43:37.130Z,90.43
2018-11-28T04:44:09.079Z,90.38
2018-11-28T04:44:42.110Z,89.65
2018-11-28T04:45:13.648Z,90.25
2018-11-28T04:45:45.319Z,89.49
2018-11-28T04:46:20.177Z,89.45
2018-11-28T04:51:39.803Z,90.72
2018-11-28T04:52:12.854Z,91.24
2018-11-28T04:52:44.140Z,91.11
2018-11-28T04:53:16.186Z,91.37
2018-11-28T04:53:47.964Z,92.05
2018-11-28T04:54:21.386Z,92.10
2018-11-28T04:54:56.405Z,92.05
2018-11-28T04:55:28.597Z,91.94
2018-11-28T04:56:00.622Z,91.45
2018-11-28T04:56:32.548Z,90.81
2018-11-28T04:57:04.538Z,90.70
2018-11-28T04:57:35.778Z,91.05
2018-11-28T04:58:07.063Z,90.66
2018-11-28T04:58:41.742Z,90.30
2018-11-28T04:59:13.079Z,89.63
2018-11-28T04:59:45.206Z,89.51
2018-11-28T05:00:19.009Z,89.69
2018-11-28T05:00:51.013Z,89.98
2018-11-28T05:01:24.440Z,90.06
2018-11-28T05:01:55.832Z,89.84
2018-11-28T05:02:27.309Z,89.24
2018-11-28T05:02:59.520Z,89.73
2018-11-28T05:03:31.783Z,90.30
2018-11-28T05:04:04.626Z,90.08
2018-11-28T05:04:39.461Z,90.09
2018-11-28T05:05:10.993Z,89.91
2018-11-28T05:05:42.562Z,89.96
2018-11-28T05:06:14.697Z,89.84
2018-11-28T05:06:48.752Z,89.62
2018-11-28T05:07:24.561Z,90.14
2018-11-28T05:07:55.866Z,90.09
2018-11-28T05:08:27.127Z,90.25
2018-11-28T05:08:58.505Z,89.62
2018-11-28T05:09:29.874Z,89.36
2018-11-28T05:10:04.090Z,89.27
2018-11-28T05:10:36.396Z,89.07
2018-11-28T05:11:08.550Z,89.95
2018-11-28T05:11:43.425Z,90.49
2018-11-28T05:12:14.714Z,89.82
2018-11-28T05:12:47.016Z,90.02
2018-11-28T05:13:18.896Z,88.80
2018-11-28T05:13:50.165Z,88.82
2018-11-28T05:14:23.531Z,89.46
2018-11-28T05:14:55.769Z,89.83
2018-11-28T05:15:27.056Z,89.58
2018-11-28T05:15:58.320Z,89.46
2018-11-28T05:16:31.270Z,89.56
2018-11-28T05:17:04.207Z,88.83
2018-11-28T05:17:35.559Z,88.43
2018-11-28T05:18:07.970Z,89.18
2018-11-28T05:18:40.679Z,88.87
2018-11-28T05:19:11.995Z,89.71
2018-11-28T05:19:45.430Z,89.16
2018-11-28T05:20:18.496Z,88.53
2018-11-28T05:20:54.685Z,88.71
2018-11-28T05:21:26.275Z,87.86
2018-11-28T05:21:58.358Z,88.15
2018-11-28T05:22:29.744Z,88.23
2018-11-28T05:23:01.442Z,88.46
2018-11-28T05:23:32.732Z,88.70
2018-11-28T05:24:08.975Z,88.90
2018-11-28T05:24:40.964Z,88.41
2018-11-28T05:25:12.814Z,88.75
2018-11-28T05:25:47.176Z,88.81
2018-11-28T05:26:19.498Z,88.39
2018-11-28T05:26:52.708Z,87.50
2018-11-28T05:27:23.957Z,88.55
2018-11-28T05:27:55.111Z,88.86
2018-11-28T05:28:27.359Z,87.68
2018-11-28T05:29:37.919Z,86.85
2018-11-28T05:30:09.899Z,87.07
2018-11-28T05:30:47.861Z,87.01
2018-11-28T05:32:00.009Z,87.12
2018-11-28T05:32:33.647Z,87.00
2018-11-28T05:33:41.987Z,87.71
2018-11-28T05:34:14.550Z,87.51
2018-11-28T05:34:46.323Z,87.56
2018-11-28T05:35:18.035Z,87.60
2018-11-28T05:35:51.558Z,86.86
2018-11-28T05:36:23.478Z,87.04
2018-11-28T05:36:56.426Z,86.59
2018-11-28T05:37:29.561Z,86.86
2018-11-28T05:38:02.742Z,86.49
2018-11-28T05:38:38.394Z,87.20
2018-11-28T05:39:10.295Z,87.16
2018-11-28T05:39:41.811Z,87.30
2018-11-28T05:40:14.671Z,86.97
2018-11-28T05:40:46.650Z,86.37
2018-11-28T05:41:20.055Z,87.10
2018-11-28T05:41:51.724Z,87.53
2018-11-28T05:53:44.299Z,89.96
2018-11-28T05:54:15.412Z,88.95
2018-11-28T05:54:46.528Z,88.71
2018-11-28T05:55:17.633Z,88.66
2018-11-28T05:55:48.742Z,88.41
2018-11-28T05:56:19.831Z,88.37
2018-11-28T05:56:50.944Z,87.07
2018-11-28T05:57:22.075Z,87.73
2018-11-28T05:57:53.188Z,87.61
2018-11-28T05:58:24.494Z,88.52
2018-11-28T05:58:55.623Z,88.35
2018-11-28T05:59:27.544Z,88.33
2018-11-28T05:59:57.868Z,88.06
2018-11-28T06:00:28.988Z,87.73
2018-11-28T06:01:00.096Z,87.68
2018-11-28T06:01:31.205Z,87.94
2018-11-28T06:02:02.318Z,88.57
2018-11-28T06:02:33.431Z,87.76
2018-11-28T06:03:04.694Z,87.76
2018-11-28T06:03:35.865Z,87.77
2018-11-28T06:04:06.987Z,87.69
2018-11-28T06:04:38.109Z,87.55
2018-11-28T06:05:09.236Z,87.28
2018-11-28T06:05:40.356Z,86.92
2018-11-28T06:06:11.758Z,87.79
2018-11-28T06:06:42.886Z,88.33
2018-11-28T06:07:14.061Z,88.12
2018-11-28T06:07:45.165Z,88.15
2018-11-28T06:08:16.308Z,88.19
2018-11-28T06:08:47.414Z,88.73
2018-11-28T06:09:18.532Z,88.83
2018-11-28T06:09:49.633Z,88.82
2018-11-28T06:10:20.753Z,88.70
2018-11-28T06:10:51.858Z,89.14
2018-11-28T06:11:22.976Z,88.54
2018-11-28T06:11:54.080Z,88.78
2018-11-28T06:12:25.183Z,88.98
2018-11-28T06:12:56.335Z,88.94
2018-11-28T06:13:27.496Z,89.00
2018-11-28T06:13:59.688Z,89.36
2018-11-28T06:14:30.800Z,88.84
2018-11-28T06:15:01.908Z,89.42
2018-11-28T06:15:33.021Z,88.90
2018-11-28T06:16:05.191Z,89.15
2018-11-28T06:16:36.367Z,89.50
2018-11-28T06:17:07.500Z,88.62
2018-11-28T06:17:38.605Z,88.76
2018-11-28T06:18:09.762Z,89.25
2018-11-28T06:18:40.925Z,89.45
2018-11-28T06:19:12.033Z,89.50
2018-11-28T06:19:43.145Z,89.35
2018-11-28T06:20:14.264Z,90.16
2018-11-28T06:20:45.714Z,90.55
2018-11-28T06:21:16.848Z,90.17
2018-11-28T06:21:47.950Z,90.04
2018-11-28T06:22:19.062Z,90.13
2018-11-28T06:22:50.173Z,90.79
2018-11-28T06:23:21.392Z,90.71
2018-11-28T06:23:52.905Z,91.06
2018-11-28T06:24:24.932Z,90.29
2018-11-28T06:24:56.036Z,90.44
2018-11-28T06:25:27.150Z,89.75
2018-11-28T06:25:58.352Z,89.43
2018-11-28T06:26:29.470Z,89.62
2018-11-28T06:27:00.605Z,90.21
2018-11-28T06:27:31.711Z,89.93
2018-11-28T06:28:02.827Z,90.13
2018-11-28T06:28:33.994Z,90.33
2018-11-28T06:29:05.101Z,90.40
2018-11-28T06:29:36.209Z,90.46
2018-11-28T06:30:07.324Z,90.81
2018-11-28T06:30:38.442Z,90.71
2018-11-28T06:31:09.554Z,90.44
2018-11-28T06:31:40.705Z,90.41
2018-11-28T06:32:11.805Z,90.27
2018-11-28T06:32:42.930Z,89.71
2018-11-28T06:33:14.053Z,88.98
2018-11-28T06:33:45.250Z,89.27
2018-11-28T06:34:18.739Z,89.92
2018-11-28T06:34:49.913Z,89.52
2018-11-28T06:35:21.017Z,89.96
2018-11-28T06:35:52.256Z,90.28
2018-11-28T06:36:23.400Z,89.91
2018-11-28T06:36:54.563Z,90.04
2018-11-28T06:37:25.746Z,89.45
2018-11-28T06:37:56.933Z,89.55
2018-11-28T06:38:28.594Z,89.42
2018-11-28T06:39:36.941Z,90.35
2018-11-28T06:40:08.156Z,89.86
2018-11-28T06:40:39.917Z,89.04
2018-11-28T06:41:11.154Z,89.42
2018-11-28T06:41:43.064Z,89.41
2018-11-28T06:42:14.328Z,88.89
2018-11-28T06:42:47.738Z,88.43
2018-11-28T06:43:21.157Z,88.55
2018-11-28T06:43:52.415Z,88.33
2018-11-28T06:44:23.747Z,88.70
2018-11-28T06:44:57.595Z,88.48
2018-11-28T06:45:30.130Z,87.68
2018-11-28T06:46:01.943Z,88.13
2018-11-28T06:46:33.303Z,88.52
2018-11-28T06:47:05.602Z,88.69
2018-11-28T06:47:37.938Z,88.95
2018-11-28T06:48:09.875Z,89.16
2018-11-28T06:49:20.038Z,89.27
2018-11-28T06:49:51.222Z,89.46
2018-11-28T06:50:58.866Z,90.00
2018-11-28T06:51:34.232Z,89.31
2018-11-28T07:03:56.649Z,89.33
2018-11-28T07:04:27.805Z,89.79
2018-11-28T07:04:58.978Z,89.49
2018-11-28T07:05:31.082Z,89.87
2018-11-28T07:06:02.403Z,90.17
2018-11-28T07:06:33.694Z,89.39
2018-11-28T07:07:04.939Z,90.60
2018-11-28T07:07:38.350Z,90.63
2018-11-28T07:16:23.948Z,91.80
2018-11-28T07:16:55.186Z,92.28
2018-11-28T07:17:26.526Z,92.62
2018-11-28T07:17:57.807Z,91.61
2018-11-28T07:18:29.095Z,91.12
2018-11-28T07:19:00.589Z,91.34
2018-11-28T07:19:32.105Z,91.59
2018-11-28T07:20:03.515Z,92.33
2018-11-28T07:20:34.726Z,92.14
2018-11-28T07:21:05.983Z,91.95
2018-11-28T07:21:37.354Z,92.07
2018-11-28T07:22:09.101Z,92.21
2018-11-28T07:22:40.326Z,92.00
2018-11-28T07:23:12.341Z,92.02
2018-11-28T07:23:43.631Z,91.47
2018-11-28T07:24:14.942Z,91.19
2018-11-28T07:24:46.204Z,91.16
2018-11-28T07:25:17.499Z,91.38
2018-11-28T07:25:48.945Z,91.12
2018-11-28T07:26:20.132Z,90.78
2018-11-28T07:26:51.445Z,90.86
2018-11-28T07:27:23.348Z,91.00
2018-11-28T07:27:54.647Z,90.90
2018-11-28T07:28:25.914Z,90.93
2018-11-28T07:28:58.291Z,90.78
2018-11-28T07:29:29.567Z,90.26
2018-11-28T07:30:00.859Z,91.49
2018-11-28T07:30:37.529Z,91.18
2018-11-28T07:31:05.313Z,91.20
2018-11-28T07:31:38.031Z,90.45
2018-11-28T07:32:10.376Z,91.27
2018-11-28T07:32:41.926Z,90.36
2018-11-28T07:33:53.033Z,90.07
2018-11-28T07:35:50.789Z,89.95
2018-11-28T07:36:22.553Z,89.83
2018-11-28T08:01:53.674Z,92.50
2018-11-28T08:03:03.910Z,91.68
2018-11-28T08:03:35.234Z,91.45
2018-11-28T08:04:54.853Z,90.93
2018-11-28T08:05:26.371Z,91.36
2018-11-28T08:05:57.815Z,91.34
2018-11-28T08:06:33.804Z,91.58
2018-11-28T08:07:07.354Z,91.79
2018-11-28T08:07:39.011Z,91.84
2018-11-28T08:08:12.584Z,91.25
2018-11-28T08:08:44.826Z,91.28
2018-11-28T08:09:16.493Z,90.97
2018-11-28T08:09:48.673Z,90.72
2018-11-28T08:10:20.236Z,90.31
2018-11-28T08:10:55.567Z,90.18
2018-11-28T08:22:48.459Z,90.15
2018-11-28T08:23:19.612Z,90.37
2018-11-28T08:23:50.737Z,90.21
2018-11-28T08:24:21.858Z,90.54
2018-11-28T08:24:53.033Z,90.05
2018-11-28T08:25:27.717Z,89.42
2018-11-28T08:25:57.509Z,89.09
2018-11-28T08:26:28.757Z,88.60
2018-11-28T08:27:00.044Z,88.71
2018-11-28T08:27:31.994Z,88.34
2018-11-28T08:28:03.348Z,88.60
2018-11-28T08:28:36.150Z,89.01
2018-11-28T08:29:06.702Z,87.56
2018-11-28T08:29:37.924Z,88.06
2018-11-28T08:30:09.207Z,87.36
2018-11-28T08:30:41.363Z,86.84
2018-11-28T08:31:12.701Z,85.93
2018-11-28T08:31:44.007Z,85.85
2018-11-28T08:32:16.568Z,86.65
2018-11-28T08:32:48.951Z,86.44
2018-11-28T08:33:20.858Z,86.22
2018-11-28T08:33:52.270Z,85.98
2018-11-28T08:34:23.711Z,86.65
2018-11-28T08:34:59.095Z,86.52
2018-11-28T08:36:06.328Z,85.92
2018-11-28T08:36:38.184Z,86.16
2018-11-28T08:37:10.466Z,86.03
2018-11-28T08:37:43.565Z,85.95
2018-11-28T08:39:50.939Z,86.51
2018-11-28T08:41:06.470Z,85.52
2018-11-28T08:41:37.676Z,84.86
2018-11-28T08:42:09.121Z,84.13
2018-11-28T08:43:20.897Z,85.18
2018-11-28T08:43:57.196Z,84.92
2018-11-28T08:45:10.297Z,84.46
2018-11-28T08:45:45.576Z,84.08
2018-11-28T08:46:21.310Z,84.11
2018-11-28T08:47:29.045Z,85.61
2018-11-28T08:48:04.814Z,85.00
2018-11-28T08:48:36.493Z,85.07
2018-11-28T08:50:26.250Z,84.92
2018-11-28T08:51:37.411Z,86.68
2018-11-28T08:52:44.178Z,85.50
2018-11-28T08:53:15.479Z,86.30
2018-11-28T08:53:47.009Z,85.96
2018-11-28T08:54:19.640Z,85.17
2018-11-28T08:54:52.176Z,84.24
2018-11-28T08:55:23.438Z,84.01
2018-11-28T08:55:56.646Z,83.55
2018-11-28T08:56:30.888Z,83.79
2018-11-28T08:57:02.201Z,83.99
2018-11-28T08:57:33.487Z,83.39
2018-11-28T08:58:05.925Z,83.36
2018-11-28T08:58:39.564Z,83.57
2018-11-28T08:59:14.124Z,82.88